Time;durP1;ratioP1;P1;durP2;ratioP2;P2;SDS_P1;SDS_P2;PMS_P1;PMS_P2;Temp;Humidity;BMP_temperature;BMP_pressure;BME280_temperature;BME280_humidity;BME280_pressure;Samples;Min_cycle;Max_cycle;Signal;HPM_P1;HPM_P2
2023/09/17 00:00:58;;;;;;;6.83;6.23;;;;;;;16.56;98.28;100697.69;5021918;28;20585;-79
2023/09/17 00:03:25;;;;;;;6.67;6.07;;;;;;;16.55;98.74;100702.22;5021729;28;20221;-80
2023/09/17 00:05:52;;;;;;;7.40;6.70;;;;;;;16.54;99.26;100702.34;5022413;28;20204;-80
2023/09/17 00:08:18;;;;;;;7.60;6.80;;;;;;;16.53;99.66;100698.81;5025922;28;20248;-81
2023/09/17 00:10:45;;;;;;;7.17;6.47;;;;;;;16.54;100.00;100697.81;5018532;28;20210;-79
2023/09/17 00:13:12;;;;;;;6.17;5.67;;;;;;;16.56;100.00;100701.22;5022253;28;20225;-80
2023/09/17 00:15:39;;;;;;;7.27;6.57;;;;;;;16.57;100.00;100697.56;5020334;28;20246;-80
2023/09/17 00:18:07;;;;;;;7.37;6.70;;;;;;;16.60;100.00;100701.81;5024667;28;20235;-82
2023/09/17 00:20:34;;;;;;;9.70;6.50;;;;;;;16.60;100.00;100702.69;5020481;28;20213;-80
2023/09/17 00:23:01;;;;;;;6.87;6.27;;;;;;;16.59;100.00;100697.44;5024238;28;20210;-80
2023/09/17 00:25:28;;;;;;;6.93;6.33;;;;;;;16.59;100.00;100702.81;5022737;28;20199;-82
2023/09/17 00:27:55;;;;;;;6.80;6.20;;;;;;;16.59;100.00;100708.19;5020828;28;20836;-79
2023/09/17 00:30:21;;;;;;;6.77;6.17;;;;;;;16.58;100.00;100696.56;5027313;28;20213;-82
2023/09/17 00:32:48;;;;;;;7.30;6.63;;;;;;;16.59;100.00;100697.44;5017327;28;20236;-81
2023/09/17 00:35:16;;;;;;;7.23;6.63;;;;;;;16.58;100.00;100693.88;5020172;28;20226;-82
2023/09/17 00:37:43;;;;;;;7.17;6.47;;;;;;;16.58;100.00;100701.09;5014374;28;20223;-81
2023/09/17 00:40:11;;;;;;;7.53;6.80;;;;;;;16.56;100.00;100695.84;5025594;28;20237;-81
2023/09/17 00:42:37;;;;;;;6.93;6.33;;;;;;;16.55;100.00;100693.31;5022092;28;20590;-79
2023/09/17 00:45:05;;;;;;;7.20;6.50;;;;;;;16.55;100.00;100696.00;5020256;28;20224;-79
2023/09/17 00:47:32;;;;;;;6.97;6.27;;;;;;;16.53;100.00;100688.06;5012435;28;20231;-79
2023/09/17 00:50:00;;;;;;;7.03;6.43;;;;;;;16.53;100.00;100687.19;5025834;28;20208;-81
2023/09/17 00:52:28;;;;;;;7.37;6.53;;;;;;;16.53;100.00;100681.81;5031847;28;20231;-80
2023/09/17 00:54:56;;;;;;;8.53;6.63;;;;;;;16.53;100.00;100680.00;5024362;28;20243;-81
2023/09/17 00:57:23;;;;;;;7.33;6.63;;;;;;;16.53;100.00;100681.81;5022590;28;20239;-80
2023/09/17 00:59:50;;;;;;;8.53;7.67;;;;;;;16.52;100.00;100677.44;5032423;28;20213;-80
2023/09/17 01:02:19;;;;;;;7.67;7.07;;;;;;;16.54;100.00;100675.47;5024367;28;20207;-79
2023/09/17 01:04:49;;;;;;;8.03;7.23;;;;;;;16.51;100.00;100678.41;5023915;28;20209;-79
2023/09/17 01:07:16;;;;;;;7.03;6.43;;;;;;;16.49;100.00;100675.84;5027097;28;20223;-79
2023/09/17 01:09:44;;;;;;;7.17;6.57;;;;;;;16.49;100.00;100669.63;5031279;28;20208;-80
2023/09/17 01:12:11;;;;;;;8.77;7.00;;;;;;;16.47;100.00;100672.47;5028363;28;20205;-79
2023/09/17 01:14:38;;;;;;;7.47;6.73;;;;;;;16.45;100.00;100674.44;5020614;28;20231;-79
2023/09/17 01:17:08;;;;;;;7.10;6.40;;;;;;;16.45;100.00;100678.97;5022186;28;20681;-79
2023/09/17 01:19:35;;;;;;;7.23;6.57;;;;;;;16.43;100.00;100676.41;5024444;28;20346;-80
2023/09/17 01:22:08;;;;;;;8.23;7.43;;;;;;;16.42;100.00;100668.47;5020936;28;20271;-81
2023/09/17 01:24:43;;;;;;;7.70;7.00;;;;;;;16.40;100.00;100673.13;5024612;28;20586;-80
2023/09/17 01:27:14;;;;;;;6.73;6.13;;;;;;;16.36;100.00;100669.00;5024066;28;20222;-81
2023/09/17 01:29:42;;;;;;;9.63;6.93;;;;;;;16.35;100.00;100676.22;5021808;28;20273;-82
2023/09/17 01:32:11;;;;;;;7.67;6.93;;;;;;;16.33;100.00;100676.34;5017811;28;20677;-79
2023/09/17 01:34:40;;;;;;;8.30;7.50;;;;;;;16.32;100.00;100673.78;5016356;28;20203;-81
2023/09/17 01:37:12;;;;;;;7.30;6.50;;;;;;;16.30;100.00;100678.47;5018245;28;20226;-80
2023/09/17 01:39:42;;;;;;;7.07;6.40;;;;;;;16.29;100.00;100679.47;5027798;28;20274;-81
2023/09/17 01:42:11;;;;;;;8.70;7.50;;;;;;;16.27;100.00;100676.06;5019442;28;20212;-82
2023/09/17 01:44:38;;;;;;;8.47;7.17;;;;;;;16.26;100.00;100677.03;5028615;28;20209;-80
2023/09/17 01:47:06;;;;;;;8.03;7.33;;;;;;;16.24;100.00;100679.84;5019682;28;20319;-79
2023/09/17 01:49:33;;;;;;;7.53;6.77;;;;;;;16.24;100.00;100681.69;5024580;28;20218;-80
2023/09/17 01:52:00;;;;;;;8.00;7.20;;;;;;;16.24;100.00;100682.53;5019410;28;20215;-82
2023/09/17 01:54:27;;;;;;;8.03;7.33;;;;;;;16.22;100.00;100687.19;5018015;28;20214;-78
2023/09/17 01:56:53;;;;;;;8.00;7.30;;;;;;;16.23;100.00;100685.34;5025281;28;20229;-79
2023/09/17 01:59:21;;;;;;;8.00;7.30;;;;;;;16.23;100.00;100685.34;5026595;28;20218;-81
2023/09/17 02:01:47;;;;;;;8.33;7.57;;;;;;;16.23;100.00;100683.53;5023084;28;20213;-80
2023/09/17 02:04:14;;;;;;;7.97;7.27;;;;;;;16.24;100.00;100684.38;5027138;28;20221;-79
2023/09/17 02:06:40;;;;;;;8.37;7.20;;;;;;;16.24;100.00;100679.84;5030968;28;20265;-80
2023/09/17 02:09:08;;;;;;;8.03;7.33;;;;;;;16.25;100.00;100672.63;5031250;28;20939;-79
2023/09/17 02:11:34;;;;;;;8.47;7.70;;;;;;;16.26;100.00;100666.28;5021029;28;20277;-80
2023/09/17 02:14:01;;;;;;;8.83;7.77;;;;;;;16.25;100.00;100670.81;5025075;28;20210;-83
2023/09/17 02:16:31;;;;;;;7.90;7.20;;;;;;;16.23;100.00;100670.09;5026352;28;20236;-79
2023/09/17 02:18:58;;;;;;;8.33;7.50;;;;;;;16.21;100.00;100668.50;5021380;28;20226;-80
2023/09/17 02:21:24;;;;;;;8.23;7.43;;;;;;;16.20;100.00;100666.81;5027373;28;20326;-80
2023/09/17 02:23:51;;;;;;;8.53;7.73;;;;;;;16.17;100.00;100667.06;5027790;28;20218;-80
2023/09/17 02:26:18;;;;;;;8.57;7.77;;;;;;;16.17;100.00;100669.75;5026319;28;20210;-80
2023/09/17 02:28:44;;;;;;;8.17;7.47;;;;;;;16.16;100.00;100662.66;5029215;28;20241;-79
2023/09/17 02:31:11;;;;;;;8.87;7.27;;;;;;;16.16;100.00;100668.91;5027836;28;20240;-79
2023/09/17 02:33:39;;;;;;;8.63;7.80;;;;;;;16.15;100.00;100667.19;5023633;28;20218;-81
2023/09/17 02:36:06;;;;;;;8.87;7.97;;;;;;;16.17;100.00;100672.44;5027929;28;20235;-80
2023/09/17 02:38:32;;;;;;;11.03;9.07;;;;;;;16.18;100.00;100674.13;5031036;28;20233;-79
2023/09/17 02:40:59;;;;;;;9.70;8.20;;;;;;;16.18;100.00;100669.63;5031146;28;20204;-79
2023/09/17 02:43:29;;;;;;;9.37;8.43;;;;;;;16.19;100.00;100670.47;5032713;28;20208;-82
2023/09/17 02:45:55;;;;;;;8.33;7.63;;;;;;;16.19;100.00;100668.63;5033309;28;20302;-78
2023/09/17 02:48:22;;;;;;;8.57;7.77;;;;;;;16.20;100.00;100664.13;5030458;28;20280;-78
2023/09/17 02:50:50;;;;;;;9.00;8.20;;;;;;;16.20;100.00;100667.66;5024677;28;20209;-79
2023/09/17 02:53:15;;;;;;;10.03;8.30;;;;;;;16.20;100.00;100656.91;5028187;28;20200;-79
2023/09/17 02:55:42;;;;;;;8.47;7.60;;;;;;;16.19;100.00;100663.25;5031565;28;20239;-80
2023/09/17 02:58:08;;;;;;;9.27;8.47;;;;;;;16.19;100.00;100660.56;5029673;28;20229;-79
2023/09/17 03:00:35;;;;;;;8.00;7.27;;;;;;;16.16;100.00;100662.66;5029954;28;20483;-80
2023/09/17 03:03:02;;;;;;;9.67;7.63;;;;;;;16.09;100.00;100654.31;5030682;28;20210;-81
2023/09/17 03:05:28;;;;;;;8.60;7.80;;;;;;;16.02;100.00;100661.19;5026269;28;20207;-79
2023/09/17 03:07:56;;;;;;;9.40;8.60;;;;;;;15.96;100.00;100654.50;5034055;28;20237;-81
2023/09/17 03:10:23;;;;;;;8.87;8.00;;;;;;;15.91;100.00;100658.56;5029712;28;20265;-80
2023/09/17 03:12:50;;;;;;;9.37;8.50;;;;;;;15.89;100.00;100658.69;5022469;28;20283;-81
2023/09/17 03:15:17;;;;;;;9.00;8.20;;;;;;;15.88;100.00;100664.19;5029770;28;20214;-81
2023/09/17 03:17:43;;;;;;;10.30;9.20;;;;;;;15.87;100.00;100662.50;5022940;28;20319;-80
2023/09/17 03:20:17;;;;;;;9.87;8.87;;;;;;;15.85;100.00;100654.56;5026913;28;20211;-82
2023/09/17 03:22:43;;;;;;;8.10;7.30;;;;;;;15.85;100.00;100654.56;5027429;28;20555;-81
2023/09/17 03:25:12;;;;;;;8.40;7.60;;;;;;;15.81;100.00;100655.81;5026434;28;20226;-82
2023/09/17 03:27:39;;;;;;;9.07;7.13;;;;;;;15.80;100.00;100659.47;5030108;28;20279;-80
2023/09/17 03:30:07;;;;;;;7.50;6.90;;;;;;;15.79;100.00;100659.59;5028573;28;20209;-79
2023/09/17 03:32:33;;;;;;;8.23;7.43;;;;;;;15.79;100.00;100660.44;5021472;28;20205;-79
2023/09/17 03:35:01;;;;;;;7.83;7.17;;;;;;;15.79;100.00;100655.06;5025796;28;20209;-80
2023/09/17 03:37:27;;;;;;;8.03;7.23;;;;;;;15.82;100.00;100660.19;5027864;28;20234;-81
2023/09/17 03:40:07;;;;;;;10.93;6.87;;;;;;;15.82;100.00;100659.34;5023579;28;20208;-79
2023/09/17 03:42:36;;;;;;;7.83;7.13;;;;;;;15.79;100.00;100663.13;5032700;28;20287;-79
2023/09/17 03:45:05;;;;;;;8.23;7.20;;;;;;;15.77;100.00;100656.19;5024771;28;20202;-79
2023/09/17 03:47:32;;;;;;;8.83;7.93;;;;;;;15.74;100.00;100662.69;5024713;28;20231;-81
2023/09/17 03:49:58;;;;;;;8.73;7.83;;;;;;;15.75;100.00;100668.91;5028795;28;20238;-79
2023/09/17 03:52:25;;;;;;;9.30;8.37;;;;;;;15.73;100.00;100674.41;5024372;28;20217;-79
2023/09/17 03:54:52;;;;;;;9.10;8.30;;;;;;;15.74;100.00;100673.44;5026736;28;20208;-79
2023/09/17 03:57:19;;;;;;;9.20;8.40;;;;;;;15.75;100.00;100674.28;5024274;28;20229;-79
2023/09/17 03:59:47;;;;;;;10.00;8.97;;;;;;;15.75;100.00;100669.78;5022344;28;20217;-79
2023/09/17 04:02:14;;;;;;;8.83;8.03;;;;;;;15.75;100.00;100675.13;5028774;28;20208;-81
2023/09/17 04:04:40;;;;;;;10.20;9.23;;;;;;;15.77;100.00;100673.16;5029474;28;20208;-79
2023/09/17 04:07:06;;;;;;;9.70;8.70;;;;;;;15.78;100.00;100674.00;5022874;28;20227;-79
2023/09/17 04:09:33;;;;;;;9.53;8.53;;;;;;;15.79;100.00;100678.41;5022405;28;20202;-80
2023/09/17 04:12:03;;;;;;;9.60;8.70;;;;;;;15.79;100.00;100678.41;5024427;28;20214;-80
2023/09/17 04:14:31;;;;;;;10.00;9.10;;;;;;;15.77;100.00;100675.84;5025579;28;20215;-79
2023/09/17 04:17:00;;;;;;;8.60;7.80;;;;;;;15.76;100.00;100681.38;5022951;28;21631;-79
2023/09/17 04:19:26;;;;;;;9.70;8.80;;;;;;;15.76;100.00;100678.69;5026565;28;20612;-79
2023/09/17 04:21:53;;;;;;;10.23;9.23;;;;;;;15.77;100.00;100681.22;5031900;28;20236;-82
2023/09/17 04:24:19;;;;;;;10.53;9.30;;;;;;;15.79;100.00;100686.44;5023343;28;20213;-80
2023/09/17 04:26:46;;;;;;;10.63;9.60;;;;;;;15.78;100.00;100682.06;5020558;28;20205;-79
2023/09/17 04:29:13;;;;;;;9.23;8.33;;;;;;;15.78;100.00;100682.06;5023099;28;20271;-79
2023/09/17 04:31:40;;;;;;;9.73;8.77;;;;;;;15.78;100.00;100682.91;5019275;28;20216;-81
2023/09/17 04:34:07;;;;;;;10.23;9.27;;;;;;;15.78;100.00;100680.22;5029370;28;20663;-79
2023/09/17 04:36:34;;;;;;;9.63;8.67;;;;;;;15.79;100.00;100681.94;5026806;28;20241;-79
2023/09/17 04:39:00;;;;;;;10.17;9.17;;;;;;;15.79;100.00;100679.25;5027777;28;20233;-80
2023/09/17 04:41:27;;;;;;;9.77;8.70;;;;;;;15.79;100.00;100678.41;5025913;28;20220;-81
2023/09/17 04:43:53;;;;;;;10.27;9.20;;;;;;;15.80;100.00;100690.84;5023195;28;20234;-79
2023/09/17 04:46:21;;;;;;;9.50;8.60;;;;;;;15.82;100.00;100694.25;5013888;28;20212;-81
2023/09/17 04:48:48;;;;;;;10.17;9.17;;;;;;;15.83;100.00;100696.81;5029467;28;20233;-79
2023/09/17 04:51:16;;;;;;;10.33;9.33;;;;;;;15.83;100.00;100694.13;5017718;28;20213;-80
2023/09/17 04:53:43;;;;;;;10.33;9.33;;;;;;;15.84;100.00;100695.84;5030400;28;20230;-80
2023/09/17 04:56:09;;;;;;;10.33;9.40;;;;;;;15.85;100.00;100697.53;5027207;28;20231;-80
2023/09/17 04:58:36;;;;;;;11.07;9.77;;;;;;;15.86;100.00;100701.94;5021848;28;20225;-81
2023/09/17 05:01:04;;;;;;;10.40;9.00;;;;;;;15.88;100.00;100705.34;5023484;28;20216;-80
2023/09/17 05:03:31;;;;;;;11.00;9.57;;;;;;;15.90;100.00;100695.31;5023035;28;20725;-81
2023/09/17 05:05:58;;;;;;;9.57;8.67;;;;;;;15.91;100.00;100694.34;5028358;28;20235;-79
2023/09/17 05:08:26;;;;;;;10.67;8.93;;;;;;;15.94;100.00;100701.28;5029239;28;20249;-80
2023/09/17 05:10:53;;;;;;;10.73;8.27;;;;;;;15.91;100.00;100694.34;5022545;28;20297;-80
2023/09/17 05:13:20;;;;;;;10.53;8.40;;;;;;;15.92;100.00;100689.81;5017299;28;20632;-79
2023/09/17 05:15:46;;;;;;;9.20;8.30;;;;;;;15.91;100.00;100702.41;5024290;28;20210;-79
2023/09/17 05:18:13;;;;;;;9.13;8.23;;;;;;;15.91;100.00;100699.72;5024081;28;20229;-81
2023/09/17 05:20:41;;;;;;;9.93;8.67;;;;;;;15.90;100.00;100706.06;5021526;28;20216;-79
2023/09/17 05:23:08;;;;;;;9.90;8.93;;;;;;;15.92;100.00;100704.09;5023978;28;20209;-80
2023/09/17 05:25:37;;;;;;;12.20;9.80;;;;;;;15.91;100.00;100702.41;5018260;28;20234;-79
2023/09/17 05:28:06;;;;;;;10.83;9.73;;;;;;;15.93;100.00;100705.81;5029905;28;20236;-79
2023/09/17 05:30:33;;;;;;;9.97;8.97;;;;;;;15.95;100.00;100709.19;5029927;28;20711;-80
2023/09/17 05:33:00;;;;;;;10.47;9.43;;;;;;;15.96;100.00;100707.34;5026514;28;20205;-81
2023/09/17 05:35:26;;;;;;;10.47;9.47;;;;;;;15.98;100.00;100713.47;5016855;28;20209;-79
2023/09/17 05:37:53;;;;;;;11.67;9.53;;;;;;;16.01;100.00;100713.19;5023474;28;20234;-82
2023/09/17 05:40:19;;;;;;;10.70;9.47;;;;;;;16.06;100.00;100712.81;5026153;28;20216;-81
2023/09/17 05:42:47;;;;;;;9.33;8.43;;;;;;;16.07;100.00;100709.16;5022053;28;20207;-81
2023/09/17 05:45:13;;;;;;;10.23;9.23;;;;;;;16.07;100.00;100714.53;5024101;28;20216;-81
2023/09/17 05:47:41;;;;;;;11.27;8.67;;;;;;;16.09;100.00;100720.63;5022272;28;20239;-82
2023/09/17 05:50:08;;;;;;;9.07;8.27;;;;;;;16.10;100.00;100723.19;5021605;28;20210;-80
2023/09/17 05:52:35;;;;;;;9.00;8.23;;;;;;;16.12;100.00;100728.44;5019928;28;20209;-79
2023/09/17 05:55:03;;;;;;;14.93;9.20;;;;;;;16.15;100.00;100726.31;5031441;28;20283;-81
2023/09/17 05:57:30;;;;;;;9.73;8.73;;;;;;;16.17;100.00;100723.50;5017673;28;20246;-80
2023/09/17 05:59:59;;;;;;;8.60;7.70;;;;;;;16.20;100.00;100723.22;5019905;28;20199;-79
2023/09/17 06:02:25;;;;;;;9.83;8.40;;;;;;;16.22;100.00;100718.59;5022694;28;20566;-80
2023/09/17 06:04:53;;;;;;;9.90;9.00;;;;;;;16.23;100.00;100723.81;5028820;28;20201;-81
2023/09/17 06:07:19;;;;;;;9.53;8.63;;;;;;;16.26;100.00;100717.34;5021565;28;20260;-79
2023/09/17 06:09:46;;;;;;;9.57;8.57;;;;;;;16.30;100.00;100716.09;5026767;28;20583;-79
2023/09/17 06:12:13;;;;;;;10.20;9.20;;;;;;;16.34;100.00;100709.44;5024055;28;20208;-82
2023/09/17 06:14:39;;;;;;;10.13;9.23;;;;;;;16.38;100.00;100724.34;5028110;28;20268;-80
2023/09/17 06:17:07;;;;;;;10.07;9.17;;;;;;;16.40;100.00;100719.69;5023793;28;20231;-81
2023/09/17 06:19:34;;;;;;;10.43;9.20;;;;;;;16.44;100.00;100731.88;5030538;28;20220;-80
2023/09/17 06:22:01;;;;;;;11.00;9.97;;;;;;;16.49;100.00;100728.78;5024719;28;20237;-81
2023/09/17 06:24:27;;;;;;;10.43;9.53;;;;;;;16.54;100.00;100724.72;5014553;28;20215;-79
2023/09/17 06:26:54;;;;;;;10.53;9.53;;;;;;;16.58;100.00;100720.78;5021825;28;20209;-79
2023/09/17 06:29:20;;;;;;;11.07;9.93;;;;;;;16.63;100.00;100721.25;5025820;28;20211;-79
2023/09/17 06:31:47;;;;;;;11.67;10.47;;;;;;;16.70;100.00;100718.03;5017904;28;20215;-81
2023/09/17 06:34:15;;;;;;;10.87;9.87;;;;;;;16.72;100.00;100714.22;5026535;28;20215;-81
2023/09/17 06:36:42;;;;;;;11.30;10.30;;;;;;;16.77;100.00;100713.81;5021920;28;20233;-79
2023/09/17 06:39:09;;;;;;;12.00;10.90;;;;;;;16.82;100.00;100714.28;5021563;28;20234;-79
2023/09/17 06:41:35;;;;;;;11.57;10.47;;;;;;;16.86;100.00;100707.59;5027674;28;20238;-78
2023/09/17 06:44:02;;;;;;;12.83;9.93;;;;;;;16.89;100.00;100712.72;5027869;28;20214;-81
2023/09/17 06:46:29;;;;;;;10.97;9.97;;;;;;;16.95;100.00;100710.34;5023308;28;20215;-78
2023/09/17 06:48:56;;;;;;;11.57;10.40;;;;;;;16.99;100.00;100717.16;5025469;28;20346;-79
2023/09/17 06:51:24;;;;;;;12.00;10.83;;;;;;;17.06;100.00;100713.91;5030723;28;20221;-79
2023/09/17 06:53:51;;;;;;;11.67;10.67;;;;;;;17.15;100.00;100710.41;5026451;28;20206;-78
2023/09/17 06:56:18;;;;;;;12.10;9.73;;;;;;;17.28;100.00;100705.63;5021082;28;20203;-78
2023/09/17 06:58:45;;;;;;;11.10;10.10;;;;;;;17.35;100.00;100712.16;5022855;28;20296;-79
2023/09/17 07:01:12;;;;;;;10.40;9.40;;;;;;;17.43;100.00;100711.44;5029398;28;20227;-79
2023/09/17 07:03:39;;;;;;;10.90;9.90;;;;;;;17.51;100.00;100707.06;5020424;28;20255;-80
2023/09/17 07:06:05;;;;;;;11.00;9.90;;;;;;;17.59;100.00;100709.03;5022121;28;20208;-79
2023/09/17 07:08:33;;;;;;;11.43;10.33;;;;;;;17.70;100.00;100706.28;5025188;28;20291;-78
2023/09/17 07:11:00;;;;;;;11.40;10.30;;;;;;;17.82;100.00;100701.59;5020852;28;20267;-78
2023/09/17 07:13:27;;;;;;;10.43;9.53;;;;;;;17.91;100.00;100696.19;5020686;28;20718;-78
2023/09/17 07:15:53;;;;;;;9.37;8.40;;;;;;;18.02;100.00;100696.03;5025608;28;20221;-79
2023/09/17 07:18:20;;;;;;;9.13;8.33;;;;;;;18.14;100.00;100698.56;5026261;28;20253;-79
2023/09/17 07:20:47;;;;;;;9.17;8.37;;;;;;;18.26;100.00;100697.44;5029593;28;20292;-80
2023/09/17 07:23:13;;;;;;;9.17;8.27;;;;;;;18.40;100.00;100694.25;5025611;28;20216;-78
2023/09/17 07:25:41;;;;;;;8.57;7.77;;;;;;;18.54;100.00;100687.53;5022955;28;20220;-78
2023/09/17 07:28:08;;;;;;;8.50;7.67;;;;;;;18.72;100.00;100696.59;5028971;28;20247;-78
2023/09/17 07:30:35;;;;;;;7.30;6.70;;;;;;;18.89;100.00;100689.56;5022540;28;20215;-80
2023/09/17 07:33:02;;;;;;;7.87;7.03;;;;;;;19.08;100.00;100692.16;5022268;28;20275;-80
2023/09/17 07:35:28;;;;;;;7.60;7.00;;;;;;;19.28;100.00;100696.44;5024253;28;20248;-80
2023/09/17 07:37:55;;;;;;;6.80;6.20;;;;;;;19.48;100.00;100691.75;5024859;28;20244;-79
2023/09/17 07:40:21;;;;;;;5.93;5.43;;;;;;;19.71;100.00;100694.84;5030667;28;20218;-79
2023/09/17 07:42:49;;;;;;;6.17;5.40;;;;;;;19.91;100.00;100687.44;5028062;28;20206;-79
2023/09/17 07:45:16;;;;;;;6.50;5.57;;;;;;;20.09;97.40;100694.50;5024393;28;20214;-79
2023/09/17 07:47:42;;;;;;;5.97;5.38;;;;;;;20.30;95.96;100704.13;5030213;28;20237;-79
2023/09/17 07:50:10;;;;;;;6.13;5.53;;;;;;;20.47;94.58;100697.00;5023735;28;20210;-79
2023/09/17 07:52:37;;;;;;;6.38;5.75;;;;;;;20.64;92.77;100709.63;5028292;28;20221;-79
2023/09/17 07:55:05;;;;;;;6.47;5.88;;;;;;;20.79;90.18;100699.88;5027188;28;20239;-80
2023/09/17 07:57:32;;;;;;;5.85;5.35;;;;;;;20.91;88.17;100701.31;5028267;28;20758;-81
2023/09/17 08:00:00;;;;;;;5.78;5.28;;;;;;;21.00;86.55;100699.47;5023125;28;20591;-81
2023/09/17 08:02:26;;;;;;;5.32;4.82;;;;;;;21.09;85.61;100703.91;5015669;28;20202;-82
2023/09/17 08:04:53;;;;;;;5.47;4.97;;;;;;;21.20;84.50;100708.22;5030186;28;20775;-79
2023/09/17 08:07:19;;;;;;;5.63;5.13;;;;;;;21.28;84.12;100700.97;5024598;28;20222;-81
2023/09/17 08:09:46;;;;;;;5.65;4.82;;;;;;;21.42;82.66;100697.63;5022979;28;20206;-80
2023/09/17 08:12:12;;;;;;;5.65;5.15;;;;;;;21.59;81.34;100686.81;5023327;28;20207;-79
2023/09/17 08:14:45;;;;;;;5.53;5.03;;;;;;;21.74;80.50;100694.09;5022855;28;20202;-79
2023/09/17 08:17:13;;;;;;;5.60;5.05;;;;;;;21.91;80.28;100689.53;5026658;28;20227;-78
2023/09/17 08:19:40;;;;;;;7.90;5.93;;;;;;;22.07;80.02;100694.97;5029970;28;20210;-80
2023/09/17 08:22:06;;;;;;;5.47;4.97;;;;;;;22.21;79.99;100692.63;5034103;28;20198;-79
2023/09/17 08:24:33;;;;;;;5.32;4.82;;;;;;;22.34;79.38;100688.34;5024206;28;20221;-81
2023/09/17 08:26:59;;;;;;;5.30;4.80;;;;;;;22.43;78.44;100692.72;5026836;28;20648;-80
2023/09/17 08:29:26;;;;;;;5.35;4.82;;;;;;;22.50;78.82;100701.03;5034221;28;20225;-81
2023/09/17 08:31:52;;;;;;;5.85;5.25;;;;;;;22.54;78.69;100699.69;5020383;28;20221;-79
2023/09/17 08:34:20;;;;;;;5.50;5.05;;;;;;;22.60;78.05;100689.97;5023019;28;20207;-79
2023/09/17 08:36:46;;;;;;;5.43;4.93;;;;;;;22.65;77.76;100695.75;5031970;28;20222;-80
2023/09/17 08:39:13;;;;;;;6.63;4.95;;;;;;;22.68;77.81;100690.81;5028216;28;20730;-79
2023/09/17 08:41:41;;;;;;;5.30;4.90;;;;;;;22.73;78.38;100693.00;5025284;28;20277;-79
2023/09/17 08:44:08;;;;;;;4.30;4.00;;;;;;;22.78;78.40;100686.03;5023524;28;20570;-78
2023/09/17 08:46:36;;;;;;;4.93;4.53;;;;;;;22.82;78.04;100676.53;5025898;28;20522;-78
2023/09/17 08:49:03;;;;;;;4.90;4.50;;;;;;;22.85;77.94;100678.91;5022277;28;20214;-78
2023/09/17 08:51:34;;;;;;;5.00;4.60;;;;;;;22.85;77.53;100676.19;5032528;28;20211;-79
2023/09/17 08:54:06;;;;;;;4.88;4.32;;;;;;;22.87;77.76;100683.31;5018988;28;20202;-80
2023/09/17 08:56:36;;;;;;;4.15;3.75;;;;;;;22.89;77.66;100682.13;5022201;28;20213;-80
2023/09/17 08:59:09;;;;;;;4.70;4.30;;;;;;;22.91;77.60;100681.94;5021395;28;20245;-81
2023/09/17 09:01:40;;;;;;;4.78;4.28;;;;;;;22.90;77.47;100681.09;5022671;28;20571;-80
2023/09/17 09:04:07;;;;;;;4.97;4.45;;;;;;;22.92;77.55;100665.47;5028489;28;20202;-79
2023/09/17 09:06:36;;;;;;;4.25;3.95;;;;;;;22.95;77.97;100670.53;5026309;28;20202;-78
2023/09/17 09:09:05;;;;;;;4.78;4.38;;;;;;;23.01;77.31;100674.41;5022065;28;20230;-80
2023/09/17 09:11:33;;;;;;;4.90;4.30;;;;;;;23.03;76.41;100673.22;5020518;28;20210;-79
2023/09/17 09:14:00;;;;;;;4.82;4.43;;;;;;;23.07;76.43;100669.13;5026266;28;20213;-80
2023/09/17 09:16:28;;;;;;;4.70;4.30;;;;;;;23.12;76.76;100677.56;5030540;28;20209;-79
2023/09/17 09:18:54;;;;;;;6.55;4.30;;;;;;;23.13;75.64;100671.13;5023415;28;20235;-80
2023/09/17 09:21:21;;;;;;;5.30;3.97;;;;;;;23.16;76.22;100667.19;5020981;28;20206;-81
2023/09/17 09:23:49;;;;;;;5.78;3.95;;;;;;;23.19;75.76;100664.97;5019654;28;20205;-80
2023/09/17 09:26:15;;;;;;;5.22;4.70;;;;;;;23.20;75.45;100663.13;5020101;28;20223;-79
2023/09/17 09:28:42;;;;;;;4.85;4.45;;;;;;;23.23;75.57;100662.75;5016836;28;20290;-79
2023/09/17 09:31:09;;;;;;;4.45;4.05;;;;;;;23.25;75.05;100659.88;5016971;28;20202;-80
2023/09/17 09:33:35;;;;;;;4.28;3.88;;;;;;;23.29;74.80;100662.03;5012559;28;20207;-79
2023/09/17 09:36:03;;;;;;;5.15;3.80;;;;;;;23.34;74.83;100653.34;5015948;28;20680;-81
2023/09/17 09:38:29;;;;;;;4.57;4.18;;;;;;;23.39;75.42;100654.50;5011273;28;20241;-82
2023/09/17 09:40:58;;;;;;;3.70;3.40;;;;;;;23.48;75.31;100655.28;5023357;28;20241;-82
2023/09/17 09:43:30;;;;;;;5.03;4.10;;;;;;;23.59;74.72;100648.63;5012655;28;20768;-81
2023/09/17 09:46:00;;;;;;;4.38;3.75;;;;;;;23.70;74.10;100651.75;5011192;28;20211;-81
2023/09/17 09:48:28;;;;;;;4.43;3.88;;;;;;;23.84;72.73;100655.53;5024900;28;20857;-81
2023/09/17 09:50:55;;;;;;;5.07;3.97;;;;;;;23.92;72.35;100646.47;5015774;28;20209;-81
2023/09/17 09:53:21;;;;;;;4.20;3.90;;;;;;;23.98;71.71;100653.91;5014728;28;20293;-81
2023/09/17 09:55:49;;;;;;;4.25;3.88;;;;;;;24.01;71.07;100640.75;5015655;28;20237;-81
2023/09/17 09:58:17;;;;;;;4.53;4.13;;;;;;;24.06;71.33;100646.50;5021091;28;20226;-81
2023/09/17 10:00:45;;;;;;;5.00;4.05;;;;;;;24.07;71.47;100637.31;5017022;28;20727;-81
2023/09/17 10:03:12;;;;;;;4.82;4.10;;;;;;;24.14;71.96;100637.44;5024057;28;20206;-81
2023/09/17 10:05:40;;;;;;;4.22;3.92;;;;;;;24.22;72.99;100638.19;5017800;28;20217;-81
2023/09/17 10:08:08;;;;;;;5.38;4.43;;;;;;;24.31;73.63;100644.44;5022106;28;20222;-81
2023/09/17 10:10:36;;;;;;;6.95;4.20;;;;;;;24.35;72.33;100642.19;5022516;28;20584;-81
2023/09/17 10:13:04;;;;;;;4.35;3.92;;;;;;;24.44;72.83;100643.78;5016240;28;20606;-82
2023/09/17 10:15:32;;;;;;;3.90;3.60;;;;;;;24.55;72.41;100635.13;5019571;28;20210;-81
2023/09/17 10:18:00;;;;;;;4.03;3.63;;;;;;;24.62;70.23;100627.91;5025765;28;20222;-81
2023/09/17 10:20:28;;;;;;;4.88;3.80;;;;;;;24.70;70.12;100626.97;5011668;28;20210;-81
2023/09/17 10:22:56;;;;;;;4.50;4.10;;;;;;;24.78;69.70;100618.69;5014092;28;20210;-81
2023/09/17 10:25:24;;;;;;;4.00;3.63;;;;;;;24.80;69.65;100614.75;5025754;28;20214;-81
2023/09/17 10:27:51;;;;;;;3.97;3.60;;;;;;;24.84;67.45;100621.50;5019928;28;20222;-81
2023/09/17 10:30:19;;;;;;;4.07;3.65;;;;;;;24.88;68.33;100614.66;5016016;28;20218;-81
2023/09/17 10:32:48;;;;;;;4.20;3.20;;;;;;;24.98;68.57;100616.25;5019797;28;20210;-81
2023/09/17 10:35:15;;;;;;;4.30;3.80;;;;;;;25.07;68.26;100612.38;5021891;28;20207;-81
2023/09/17 10:37:46;;;;;;;3.95;3.58;;;;;;;25.20;67.90;100604.34;5028348;28;20253;-81
2023/09/17 10:40:13;;;;;;;4.10;3.70;;;;;;;25.26;65.72;100615.28;5015754;28;20217;-81
2023/09/17 10:42:40;;;;;;;3.53;3.17;;;;;;;25.35;65.52;100612.47;5013383;28;20202;-81
2023/09/17 10:45:09;;;;;;;4.63;3.67;;;;;;;25.40;65.76;100608.13;5026336;28;20217;-82
2023/09/17 10:47:36;;;;;;;4.25;3.85;;;;;;;25.46;64.38;100610.06;5038016;28;20241;-81
2023/09/17 10:50:05;;;;;;;3.65;3.35;;;;;;;25.51;65.23;100602.13;5034282;28;20207;-81
2023/09/17 10:52:31;;;;;;;3.80;3.50;;;;;;;25.52;63.18;100606.56;5034268;28;20211;-82
2023/09/17 10:54:58;;;;;;;3.63;3.33;;;;;;;25.56;64.22;100607.84;5034194;28;20229;-82
2023/09/17 10:57:34;;;;;;;3.75;3.45;;;;;;;25.64;64.80;100617.81;5032796;28;20236;-81
2023/09/17 11:00:04;;;;;;;3.88;3.58;;;;;;;25.70;64.71;100611.56;5022612;28;20691;-81
2023/09/17 11:02:33;;;;;;;3.65;3.33;;;;;;;25.72;64.06;100612.22;5022620;28;20241;-81
2023/09/17 11:05:03;;;;;;;5.47;3.05;;;;;;;25.73;62.90;100613.91;5021424;28;20262;-81
2023/09/17 11:07:32;;;;;;;3.55;3.22;;;;;;;25.79;62.72;100615.03;5022153;28;20233;-81
2023/09/17 11:10:01;;;;;;;3.35;3.05;;;;;;;25.84;62.36;100616.09;5017323;28;20194;-81
2023/09/17 11:12:29;;;;;;;3.45;3.15;;;;;;;25.89;62.37;100620.97;5009549;28;20288;-82
2023/09/17 11:14:55;;;;;;;3.50;3.20;;;;;;;25.97;62.80;100622.72;5018973;28;20621;-82
2023/09/17 11:17:31;;;;;;;3.22;2.90;;;;;;;26.01;60.60;100619.38;5027727;28;20237;-82